sensor_id;sensor_type;location;lat;lon;timestamp;P1;durP1;ratioP1;P2;durP2;ratioP2
73893;SDS011;62699;50.534;12.784;2023-06-14T00:01:20;9.70;;;6.38;;
73893;SDS011;62699;50.534;12.784;2023-06-14T00:06:21;9.75;;;6.43;;
73893;SDS011;62699;50.534;12.784;2023-06-14T00:11:24;11.02;;;6.40;;
73893;SDS011;62699;50.534;12.784;2023-06-14T00:16:26;10.48;;;6.75;;
73893;SDS011;62699;50.534;12.784;2023-06-14T00:21:27;8.70;;;5.82;;
73893;SDS011;62699;50.534;12.784;2023-06-14T00:26:28;10.48;;;6.32;;
73893;SDS011;62699;50.534;12.784;2023-06-14T00:31:28;11.30;;;6.38;;
73893;SDS011;62699;50.534;12.784;2023-06-14T00:36:29;10.35;;;6.38;;
73893;SDS011;62699;50.534;12.784;2023-06-14T00:41:29;10.30;;;6.40;;
73893;SDS011;62699;50.534;12.784;2023-06-14T00:46:29;11.27;;;6.45;;
73893;SDS011;62699;50.534;12.784;2023-06-14T00:51:30;13.05;;;6.88;;
73893;SDS011;62699;50.534;12.784;2023-06-14T00:56:30;10.65;;;6.15;;
73893;SDS011;62699;50.534;12.784;2023-06-14T01:01:30;11.43;;;6.85;;
73893;SDS011;62699;50.534;12.784;2023-06-14T01:06:45;12.60;;;6.45;;
73893;SDS011;62699;50.534;12.784;2023-06-14T01:17:13;10.70;;;6.53;;
73893;SDS011;62699;50.534;12.784;2023-06-14T01:22:16;10.65;;;6.88;;
73893;SDS011;62699;50.534;12.784;2023-06-14T01:27:17;11.73;;;7.55;;
73893;SDS011;62699;50.534;12.784;2023-06-14T01:32:19;15.32;;;7.10;;
73893;SDS011;62699;50.534;12.784;2023-06-14T01:37:20;10.35;;;6.60;;
73893;SDS011;62699;50.534;12.784;2023-06-14T01:42:21;12.07;;;6.95;;
73893;SDS011;62699;50.534;12.784;2023-06-14T01:47:23;13.93;;;6.88;;
73893;SDS011;62699;50.534;12.784;2023-06-14T01:52:24;9.98;;;6.10;;
73893;SDS011;62699;50.534;12.784;2023-06-14T01:57:25;14.40;;;8.18;;
73893;SDS011;62699;50.534;12.784;2023-06-14T02:02:26;9.90;;;6.53;;
73893;SDS011;62699;50.534;12.784;2023-06-14T02:07:26;13.23;;;7.25;;
73893;SDS011;62699;50.534;12.784;2023-06-14T02:12:28;10.35;;;6.90;;
73893;SDS011;62699;50.534;12.784;2023-06-14T02:17:28;12.02;;;7.20;;
73893;SDS011;62699;50.534;12.784;2023-06-14T02:22:30;11.95;;;8.30;;
73893;SDS011;62699;50.534;12.784;2023-06-14T02:27:32;11.93;;;7.47;;
73893;SDS011;62699;50.534;12.784;2023-06-14T02:32:33;10.68;;;6.82;;
73893;SDS011;62699;50.534;12.784;2023-06-14T02:37:35;13.23;;;7.47;;
73893;SDS011;62699;50.534;12.784;2023-06-14T02:42:35;11.18;;;7.35;;
73893;SDS011;62699;50.534;12.784;2023-06-14T02:47:36;11.20;;;7.50;;
73893;SDS011;62699;50.534;12.784;2023-06-14T02:52:36;9.95;;;6.70;;
73893;SDS011;62699;50.534;12.784;2023-06-14T02:57:36;10.60;;;7.10;;
73893;SDS011;62699;50.534;12.784;2023-06-14T03:02:37;11.25;;;7.45;;
73893;SDS011;62699;50.534;12.784;2023-06-14T03:07:37;12.07;;;7.30;;
73893;SDS011;62699;50.534;12.784;2023-06-14T03:12:41;11.70;;;7.63;;
73893;SDS011;62699;50.534;12.784;2023-06-14T03:17:41;12.05;;;7.55;;
73893;SDS011;62699;50.534;12.784;2023-06-14T03:22:46;12.50;;;7.70;;
73893;SDS011;62699;50.534;12.784;2023-06-14T03:27:47;10.88;;;7.07;;
73893;SDS011;62699;50.534;12.784;2023-06-14T03:32:47;11.20;;;7.03;;
73893;SDS011;62699;50.534;12.784;2023-06-14T03:37:48;13.02;;;7.40;;
73893;SDS011;62699;50.534;12.784;2023-06-14T03:42:48;11.60;;;7.28;;
73893;SDS011;62699;50.534;12.784;2023-06-14T03:47:48;12.77;;;7.60;;
73893;SDS011;62699;50.534;12.784;2023-06-14T03:52:48;13.05;;;7.82;;
73893;SDS011;62699;50.534;12.784;2023-06-14T03:57:51;12.02;;;7.18;;
73893;SDS011;62699;50.534;12.784;2023-06-14T04:02:52;13.35;;;7.18;;
73893;SDS011;62699;50.534;12.784;2023-06-14T04:07:52;11.18;;;7.15;;
73893;SDS011;62699;50.534;12.784;2023-06-14T04:12:55;12.20;;;7.78;;
73893;SDS011;62699;50.534;12.784;2023-06-14T04:17:56;12.35;;;7.13;;
73893;SDS011;62699;50.534;12.784;2023-06-14T04:22:57;11.75;;;7.22;;
73893;SDS011;62699;50.534;12.784;2023-06-14T04:27:57;11.77;;;6.40;;
73893;SDS011;62699;50.534;12.784;2023-06-14T04:32:57;9.63;;;5.85;;
73893;SDS011;62699;50.534;12.784;2023-06-14T04:37:59;11.23;;;5.57;;
73893;SDS011;62699;50.534;12.784;2023-06-14T04:43:00;11.27;;;4.90;;
73893;SDS011;62699;50.534;12.784;2023-06-14T04:48:00;9.85;;;4.55;;
73893;SDS011;62699;50.534;12.784;2023-06-14T04:53:01;9.85;;;4.95;;
73893;SDS011;62699;50.534;12.784;2023-06-14T04:58:01;7.30;;;4.47;;
73893;SDS011;62699;50.534;12.784;2023-06-14T05:03:03;9.73;;;4.63;;
73893;SDS011;62699;50.534;12.784;2023-06-14T05:08:06;7.78;;;4.28;;
73893;SDS011;62699;50.534;12.784;2023-06-14T05:13:08;6.97;;;3.90;;
73893;SDS011;62699;50.534;12.784;2023-06-14T05:18:10;8.68;;;4.13;;
73893;SDS011;62699;50.534;12.784;2023-06-14T05:23:10;7.70;;;4.10;;
73893;SDS011;62699;50.534;12.784;2023-06-14T05:28:15;8.82;;;4.22;;
73893;SDS011;62699;50.534;12.784;2023-06-14T05:33:16;7.38;;;4.57;;
73893;SDS011;62699;50.534;12.784;2023-06-14T05:38:16;7.13;;;3.83;;
73893;SDS011;62699;50.534;12.784;2023-06-14T05:43:16;6.80;;;3.95;;
73893;SDS011;62699;50.534;12.784;2023-06-14T05:48:17;6.55;;;3.80;;
73893;SDS011;62699;50.534;12.784;2023-06-14T05:53:17;7.57;;;3.97;;
73893;SDS011;62699;50.534;12.784;2023-06-14T05:58:17;7.30;;;3.88;;
73893;SDS011;62699;50.534;12.784;2023-06-14T06:03:18;7.70;;;4.30;;
73893;SDS011;62699;50.534;12.784;2023-06-14T06:08:19;8.82;;;3.70;;
73893;SDS011;62699;50.534;12.784;2023-06-14T06:13:19;6.82;;;3.92;;
73893;SDS011;62699;50.534;12.784;2023-06-14T06:18:19;7.18;;;3.72;;
73893;SDS011;62699;50.534;12.784;2023-06-14T06:23:20;7.35;;;3.35;;
73893;SDS011;62699;50.534;12.784;2023-06-14T06:28:20;6.10;;;3.35;;
73893;SDS011;62699;50.534;12.784;2023-06-14T06:33:21;7.53;;;3.08;;
73893;SDS011;62699;50.534;12.784;2023-06-14T06:38:21;5.10;;;2.72;;
73893;SDS011;62699;50.534;12.784;2023-06-14T06:43:21;5.55;;;2.85;;
73893;SDS011;62699;50.534;12.784;2023-06-14T06:48:22;4.65;;;2.85;;
73893;SDS011;62699;50.534;12.784;2023-06-14T06:53:22;5.00;;;2.77;;
73893;SDS011;62699;50.534;12.784;2023-06-14T06:58:22;3.63;;;2.17;;
73893;SDS011;62699;50.534;12.784;2023-06-14T07:03:23;4.82;;;2.42;;
73893;SDS011;62699;50.534;12.784;2023-06-14T07:08:23;4.55;;;2.33;;
73893;SDS011;62699;50.534;12.784;2023-06-14T07:13:23;5.50;;;2.60;;
73893;SDS011;62699;50.534;12.784;2023-06-14T07:18:25;5.72;;;2.65;;
73893;SDS011;62699;50.534;12.784;2023-06-14T07:23:26;4.50;;;2.58;;
73893;SDS011;62699;50.534;12.784;2023-06-14T07:28:27;5.25;;;3.00;;
73893;SDS011;62699;50.534;12.784;2023-06-14T07:33:27;4.38;;;2.40;;
73893;SDS011;62699;50.534;12.784;2023-06-14T07:38:27;5.55;;;2.67;;
73893;SDS011;62699;50.534;12.784;2023-06-14T07:43:29;5.72;;;2.78;;
73893;SDS011;62699;50.534;12.784;2023-06-14T07:48:30;4.13;;;2.17;;
73893;SDS011;62699;50.534;12.784;2023-06-14T07:53:31;4.68;;;2.45;;
73893;SDS011;62699;50.534;12.784;2023-06-14T07:58:31;3.80;;;2.53;;
73893;SDS011;62699;50.534;12.784;2023-06-14T08:03:32;5.45;;;2.30;;
73893;SDS011;62699;50.534;12.784;2023-06-14T08:08:33;4.55;;;2.80;;
73893;SDS011;62699;50.534;12.784;2023-06-14T08:13:35;5.28;;;2.65;;
73893;SDS011;62699;50.534;12.784;2023-06-14T08:18:36;7.63;;;2.85;;
73893;SDS011;62699;50.534;12.784;2023-06-14T08:23:36;5.13;;;2.90;;
73893;SDS011;62699;50.534;12.784;2023-06-14T08:28:37;8.60;;;3.10;;
73893;SDS011;62699;50.534;12.784;2023-06-14T08:33:37;5.83;;;2.57;;
73893;SDS011;62699;50.534;12.784;2023-06-14T08:38:39;4.68;;;2.80;;
73893;SDS011;62699;50.534;12.784;2023-06-14T08:43:39;6.43;;;3.55;;
73893;SDS011;62699;50.534;12.784;2023-06-14T08:48:39;4.90;;;2.72;;
73893;SDS011;62699;50.534;12.784;2023-06-14T08:53:40;5.22;;;2.80;;
73893;SDS011;62699;50.534;12.784;2023-06-14T08:58:42;5.78;;;2.65;;
73893;SDS011;62699;50.534;12.784;2023-06-14T09:03:48;6.95;;;2.88;;
73893;SDS011;62699;50.534;12.784;2023-06-14T09:08:49;5.18;;;2.80;;
73893;SDS011;62699;50.534;12.784;2023-06-14T09:13:49;9.63;;;3.33;;
73893;SDS011;62699;50.534;12.784;2023-06-14T09:18:50;6.75;;;2.97;;
73893;SDS011;62699;50.534;12.784;2023-06-14T09:23:50;6.22;;;2.90;;
73893;SDS011;62699;50.534;12.784;2023-06-14T09:28:50;4.32;;;2.60;;
73893;SDS011;62699;50.534;12.784;2023-06-14T09:33:51;6.32;;;2.80;;
73893;SDS011;62699;50.534;12.784;2023-06-14T09:38:55;5.40;;;2.67;;
73893;SDS011;62699;50.534;12.784;2023-06-14T09:43:57;6.55;;;3.08;;
73893;SDS011;62699;50.534;12.784;2023-06-14T09:49:00;5.07;;;2.83;;
73893;SDS011;62699;50.534;12.784;2023-06-14T09:54:02;6.10;;;2.90;;
73893;SDS011;62699;50.534;12.784;2023-06-14T09:59:06;4.28;;;2.67;;
73893;SDS011;62699;50.534;12.784;2023-06-14T10:04:10;5.80;;;3.00;;
73893;SDS011;62699;50.534;12.784;2023-06-14T10:09:12;6.18;;;3.05;;
73893;SDS011;62699;50.534;12.784;2023-06-14T10:14:12;5.47;;;2.80;;
73893;SDS011;62699;50.534;12.784;2023-06-14T10:19:22;5.85;;;3.08;;
73893;SDS011;62699;50.534;12.784;2023-06-14T10:24:31;7.22;;;3.20;;
73893;SDS011;62699;50.534;12.784;2023-06-14T10:34:56;5.20;;;2.97;;
73893;SDS011;62699;50.534;12.784;2023-06-14T10:40:02;7.50;;;3.00;;
73893;SDS011;62699;50.534;12.784;2023-06-14T10:45:02;6.50;;;3.30;;
73893;SDS011;62699;50.534;12.784;2023-06-14T10:50:07;6.43;;;3.25;;
73893;SDS011;62699;50.534;12.784;2023-06-14T10:55:12;4.60;;;2.90;;
73893;SDS011;62699;50.534;12.784;2023-06-14T11:00:19;4.78;;;2.70;;
73893;SDS011;62699;50.534;12.784;2023-06-14T11:05:26;5.32;;;2.78;;
73893;SDS011;62699;50.534;12.784;2023-06-14T11:10:36;6.07;;;2.90;;
73893;SDS011;62699;50.534;12.784;2023-06-14T11:15:44;5.18;;;2.67;;
73893;SDS011;62699;50.534;12.784;2023-06-14T11:20:47;7.05;;;3.30;;
73893;SDS011;62699;50.534;12.784;2023-06-14T11:25:51;4.65;;;2.55;;
73893;SDS011;62699;50.534;12.784;2023-06-14T11:31:02;10.38;;;3.28;;
73893;SDS011;62699;50.534;12.784;2023-06-14T11:36:04;5.57;;;3.03;;
73893;SDS011;62699;50.534;12.784;2023-06-14T11:41:08;7.90;;;2.80;;
73893;SDS011;62699;50.534;12.784;2023-06-14T11:46:14;7.07;;;3.03;;
73893;SDS011;62699;50.534;12.784;2023-06-14T11:51:24;5.93;;;3.10;;
73893;SDS011;62699;50.534;12.784;2023-06-14T11:56:24;6.28;;;2.47;;
73893;SDS011;62699;50.534;12.784;2023-06-14T12:01:26;4.97;;;2.75;;
73893;SDS011;62699;50.534;12.784;2023-06-14T12:06:27;20.07;;;3.67;;
73893;SDS011;62699;50.534;12.784;2023-06-14T12:11:33;5.07;;;2.92;;
73893;SDS011;62699;50.534;12.784;2023-06-14T12:16:38;7.65;;;3.20;;
73893;SDS011;62699;50.534;12.784;2023-06-14T12:21:40;4.28;;;2.72;;
73893;SDS011;62699;50.534;12.784;2023-06-14T12:26:41;5.70;;;2.90;;
73893;SDS011;62699;50.534;12.784;2023-06-14T12:31:42;11.23;;;3.15;;
73893;SDS011;62699;50.534;12.784;2023-06-14T12:36:43;5.95;;;2.78;;
73893;SDS011;62699;50.534;12.784;2023-06-14T12:41:46;7.22;;;2.80;;
73893;SDS011;62699;50.534;12.784;2023-06-14T12:46:47;5.88;;;3.33;;
73893;SDS011;62699;50.534;12.784;2023-06-14T12:51:47;5.43;;;3.10;;
73893;SDS011;62699;50.534;12.784;2023-06-14T12:56:47;5.88;;;2.58;;
73893;SDS011;62699;50.534;12.784;2023-06-14T13:01:47;6.30;;;2.70;;
73893;SDS011;62699;50.534;12.784;2023-06-14T13:06:50;7.05;;;3.03;;
73893;SDS011;62699;50.534;12.784;2023-06-14T13:11:50;5.13;;;2.80;;
73893;SDS011;62699;50.534;12.784;2023-06-14T13:16:50;4.00;;;2.50;;
73893;SDS011;62699;50.534;12.784;2023-06-14T13:21:51;3.78;;;2.40;;
73893;SDS011;62699;50.534;12.784;2023-06-14T13:26:51;4.38;;;2.20;;
73893;SDS011;62699;50.534;12.784;2023-06-14T13:31:52;3.95;;;2.33;;
73893;SDS011;62699;50.534;12.784;2023-06-14T13:36:53;4.40;;;1.95;;
73893;SDS011;62699;50.534;12.784;2023-06-14T13:41:55;4.35;;;2.58;;
73893;SDS011;62699;50.534;12.784;2023-06-14T13:46:55;4.57;;;2.35;;
73893;SDS011;62699;50.534;12.784;2023-06-14T13:51:55;4.63;;;2.00;;
73893;SDS011;62699;50.534;12.784;2023-06-14T13:56:56;4.07;;;2.17;;
73893;SDS011;62699;50.534;12.784;2023-06-14T14:01:56;4.73;;;2.43;;
73893;SDS011;62699;50.534;12.784;2023-06-14T14:06:57;5.18;;;2.35;;
73893;SDS011;62699;50.534;12.784;2023-06-14T14:11:58;6.07;;;3.00;;
73893;SDS011;62699;50.534;12.784;2023-06-14T14:16:58;4.50;;;2.38;;
73893;SDS011;62699;50.534;12.784;2023-06-14T14:22:00;9.15;;;4.45;;
73893;SDS011;62699;50.534;12.784;2023-06-14T14:27:01;5.25;;;2.70;;
73893;SDS011;62699;50.534;12.784;2023-06-14T14:32:02;5.65;;;2.55;;
73893;SDS011;62699;50.534;12.784;2023-06-14T14:37:04;4.75;;;2.30;;
73893;SDS011;62699;50.534;12.784;2023-06-14T14:42:04;4.25;;;2.33;;
73893;SDS011;62699;50.534;12.784;2023-06-14T14:47:05;4.40;;;2.25;;
73893;SDS011;62699;50.534;12.784;2023-06-14T14:52:07;3.92;;;2.50;;
73893;SDS011;62699;50.534;12.784;2023-06-14T14:57:08;4.55;;;2.40;;
73893;SDS011;62699;50.534;12.784;2023-06-14T15:02:08;4.10;;;2.40;;
73893;SDS011;62699;50.534;12.784;2023-06-14T15:07:09;6.25;;;2.30;;
73893;SDS011;62699;50.534;12.784;2023-06-14T15:12:10;5.03;;;2.72;;
73893;SDS011;62699;50.534;12.784;2023-06-14T15:17:11;5.85;;;2.83;;
73893;SDS011;62699;50.534;12.784;2023-06-14T15:22:11;4.95;;;2.55;;
73893;SDS011;62699;50.534;12.784;2023-06-14T15:27:11;4.47;;;2.50;;
73893;SDS011;62699;50.534;12.784;2023-06-14T15:32:12;6.10;;;2.83;;
73893;SDS011;62699;50.534;12.784;2023-06-14T15:37:12;6.27;;;3.10;;
73893;SDS011;62699;50.534;12.784;2023-06-14T15:42:13;5.25;;;2.95;;
73893;SDS011;62699;50.534;12.784;2023-06-14T15:47:13;6.88;;;2.80;;
73893;SDS011;62699;50.534;12.784;2023-06-14T15:52:14;6.37;;;3.23;;
73893;SDS011;62699;50.534;12.784;2023-06-14T15:57:15;4.95;;;2.75;;
73893;SDS011;62699;50.534;12.784;2023-06-14T16:02:15;4.63;;;2.40;;
73893;SDS011;62699;50.534;12.784;2023-06-14T16:07:15;5.57;;;2.55;;
73893;SDS011;62699;50.534;12.784;2023-06-14T16:12:15;4.28;;;2.30;;
73893;SDS011;62699;50.534;12.784;2023-06-14T16:17:16;5.40;;;2.87;;
73893;SDS011;62699;50.534;12.784;2023-06-14T16:22:19;4.72;;;2.63;;
73893;SDS011;62699;50.534;12.784;2023-06-14T16:27:20;4.72;;;2.70;;
73893;SDS011;62699;50.534;12.784;2023-06-14T16:32:20;5.10;;;2.70;;
73893;SDS011;62699;50.534;12.784;2023-06-14T16:37:20;6.95;;;3.20;;
73893;SDS011;62699;50.534;12.784;2023-06-14T16:42:22;7.25;;;3.17;;
73893;SDS011;62699;50.534;12.784;2023-06-14T16:47:22;6.47;;;3.63;;
73893;SDS011;62699;50.534;12.784;2023-06-14T16:52:22;6.40;;;3.42;;
73893;SDS011;62699;50.534;12.784;2023-06-14T16:57:22;6.50;;;3.10;;
73893;SDS011;62699;50.534;12.784;2023-06-14T17:02:23;4.82;;;2.53;;
73893;SDS011;62699;50.534;12.784;2023-06-14T17:07:23;5.10;;;2.67;;
73893;SDS011;62699;50.534;12.784;2023-06-14T17:12:23;6.00;;;3.00;;
73893;SDS011;62699;50.534;12.784;2023-06-14T17:17:27;5.82;;;3.08;;
73893;SDS011;62699;50.534;12.784;2023-06-14T17:22:28;6.10;;;3.35;;
73893;SDS011;62699;50.534;12.784;2023-06-14T17:27:28;4.72;;;3.00;;
73893;SDS011;62699;50.534;12.784;2023-06-14T17:32:28;6.50;;;3.45;;
73893;SDS011;62699;50.534;12.784;2023-06-14T17:37:29;6.30;;;3.60;;
73893;SDS011;62699;50.534;12.784;2023-06-14T17:42:30;9.13;;;5.28;;
73893;SDS011;62699;50.534;12.784;2023-06-14T17:47:30;5.72;;;3.50;;
73893;SDS011;62699;50.534;12.784;2023-06-14T17:52:30;7.95;;;3.80;;
73893;SDS011;62699;50.534;12.784;2023-06-14T17:57:31;7.20;;;3.67;;
73893;SDS011;62699;50.534;12.784;2023-06-14T18:02:31;6.57;;;4.05;;
73893;SDS011;62699;50.534;12.784;2023-06-14T18:07:31;7.35;;;3.63;;
73893;SDS011;62699;50.534;12.784;2023-06-14T18:12:32;6.40;;;3.90;;
73893;SDS011;62699;50.534;12.784;2023-06-14T18:17:32;6.72;;;4.03;;
73893;SDS011;62699;50.534;12.784;2023-06-14T18:22:33;6.57;;;3.72;;
73893;SDS011;62699;50.534;12.784;2023-06-14T18:27:33;6.75;;;3.90;;
73893;SDS011;62699;50.534;12.784;2023-06-14T18:32:33;6.03;;;3.63;;
73893;SDS011;62699;50.534;12.784;2023-06-14T18:37:35;6.18;;;3.55;;
73893;SDS011;62699;50.534;12.784;2023-06-14T18:42:35;7.40;;;3.60;;
73893;SDS011;62699;50.534;12.784;2023-06-14T18:47:35;6.72;;;3.80;;
73893;SDS011;62699;50.534;12.784;2023-06-14T18:52:36;5.90;;;3.67;;
73893;SDS011;62699;50.534;12.784;2023-06-14T18:57:36;6.18;;;3.55;;
73893;SDS011;62699;50.534;12.784;2023-06-14T19:02:36;8.68;;;3.95;;
73893;SDS011;62699;50.534;12.784;2023-06-14T19:07:41;7.82;;;4.00;;
73893;SDS011;62699;50.534;12.784;2023-06-14T19:12:41;10.15;;;4.47;;
73893;SDS011;62699;50.534;12.784;2023-06-14T19:17:53;9.32;;;4.63;;
73893;SDS011;62699;50.534;12.784;2023-06-14T19:22:56;8.40;;;4.60;;
73893;SDS011;62699;50.534;12.784;2023-06-14T19:27:57;8.02;;;4.13;;
73893;SDS011;62699;50.534;12.784;2023-06-14T19:32:57;7.53;;;4.18;;
73893;SDS011;62699;50.534;12.784;2023-06-14T19:37:58;5.97;;;3.78;;
73893;SDS011;62699;50.534;12.784;2023-06-14T19:42:58;7.15;;;4.30;;
73893;SDS011;62699;50.534;12.784;2023-06-14T19:48:00;7.07;;;4.63;;
73893;SDS011;62699;50.534;12.784;2023-06-14T19:53:00;7.22;;;4.15;;
73893;SDS011;62699;50.534;12.784;2023-06-14T19:58:01;7.25;;;4.15;;
73893;SDS011;62699;50.534;12.784;2023-06-14T20:03:02;7.70;;;4.68;;
73893;SDS011;62699;50.534;12.784;2023-06-14T20:08:03;7.57;;;4.53;;
73893;SDS011;62699;50.534;12.784;2023-06-14T20:13:05;8.80;;;4.65;;
73893;SDS011;62699;50.534;12.784;2023-06-14T20:18:05;6.97;;;4.32;;
73893;SDS011;62699;50.534;12.784;2023-06-14T20:23:07;8.90;;;5.22;;
73893;SDS011;62699;50.534;12.784;2023-06-14T20:28:08;8.45;;;4.85;;
73893;SDS011;62699;50.534;12.784;2023-06-14T20:33:09;7.53;;;4.80;;
73893;SDS011;62699;50.534;12.784;2023-06-14T20:38:10;8.05;;;4.50;;
73893;SDS011;62699;50.534;12.784;2023-06-14T20:43:10;7.95;;;4.95;;
73893;SDS011;62699;50.534;12.784;2023-06-14T20:48:12;7.15;;;4.55;;
73893;SDS011;62699;50.534;12.784;2023-06-14T20:53:12;8.95;;;4.95;;
73893;SDS011;62699;50.534;12.784;2023-06-14T20:58:12;8.15;;;4.63;;
73893;SDS011;62699;50.534;12.784;2023-06-14T21:03:12;11.70;;;5.20;;
73893;SDS011;62699;50.534;12.784;2023-06-14T21:08:13;7.80;;;4.80;;
73893;SDS011;62699;50.534;12.784;2023-06-14T21:13:14;7.38;;;4.50;;
73893;SDS011;62699;50.534;12.784;2023-06-14T21:18:14;7.50;;;4.75;;
73893;SDS011;62699;50.534;12.784;2023-06-14T21:23:15;8.05;;;4.53;;
73893;SDS011;62699;50.534;12.784;2023-06-14T21:28:19;8.85;;;5.10;;
73893;SDS011;62699;50.534;12.784;2023-06-14T21:33:19;8.77;;;4.82;;
73893;SDS011;62699;50.534;12.784;2023-06-14T21:38:20;8.15;;;4.60;;
73893;SDS011;62699;50.534;12.784;2023-06-14T21:43:20;9.25;;;5.30;;
73893;SDS011;62699;50.534;12.784;2023-06-14T21:48:20;8.27;;;4.70;;
73893;SDS011;62699;50.534;12.784;2023-06-14T21:53:21;8.38;;;5.15;;
73893;SDS011;62699;50.534;12.784;2023-06-14T21:58:21;7.45;;;4.55;;
73893;SDS011;62699;50.534;12.784;2023-06-14T22:03:21;8.43;;;4.80;;
73893;SDS011;62699;50.534;12.784;2023-06-14T22:08:22;8.02;;;5.22;;
73893;SDS011;62699;50.534;12.784;2023-06-14T22:13:22;8.45;;;4.95;;
73893;SDS011;62699;50.534;12.784;2023-06-14T22:18:23;9.35;;;4.65;;
73893;SDS011;62699;50.534;12.784;2023-06-14T22:23:23;7.90;;;4.95;;
73893;SDS011;62699;50.534;12.784;2023-06-14T22:28:25;8.13;;;4.90;;
73893;SDS011;62699;50.534;12.784;2023-06-14T22:33:26;8.73;;;4.95;;
73893;SDS011;62699;50.534;12.784;2023-06-14T22:38:26;7.97;;;4.72;;
73893;SDS011;62699;50.534;12.784;2023-06-14T22:43:26;8.23;;;4.70;;
73893;SDS011;62699;50.534;12.784;2023-06-14T22:48:27;8.35;;;5.22;;
73893;SDS011;62699;50.534;12.784;2023-06-14T22:53:27;8.23;;;4.90;;
73893;SDS011;62699;50.534;12.784;2023-06-14T22:58:28;9.05;;;5.05;;
73893;SDS011;62699;50.534;12.784;2023-06-14T23:03:29;7.38;;;4.50;;
73893;SDS011;62699;50.534;12.784;2023-06-14T23:08:30;9.55;;;5.43;;
73893;SDS011;62699;50.534;12.784;2023-06-14T23:13:31;9.10;;;5.47;;
73893;SDS011;62699;50.534;12.784;2023-06-14T23:18:31;7.93;;;4.75;;
73893;SDS011;62699;50.534;12.784;2023-06-14T23:23:32;8.80;;;5.00;;
73893;SDS011;62699;50.534;12.784;2023-06-14T23:28:37;7.53;;;4.63;;
73893;SDS011;62699;50.534;12.784;2023-06-14T23:33:40;8.50;;;4.80;;
73893;SDS011;62699;50.534;12.784;2023-06-14T23:38:43;8.85;;;5.53;;
73893;SDS011;62699;50.534;12.784;2023-06-14T23:43:47;8.27;;;5.10;;
73893;SDS011;62699;50.534;12.784;2023-06-14T23:48:50;8.10;;;5.00;;
73893;SDS011;62699;50.534;12.784;2023-06-14T23:53:50;9.05;;;4.65;;
73893;SDS011;62699;50.534;12.784;2023-06-14T23:58:52;10.18;;;5.60;;
